Time;durP1;ratioP1;P1;durP2;ratioP2;P2;SDS_P1;SDS_P2;PMS_P1;PMS_P2;Temp;Humidity;BMP_temperature;BMP_pressure;BME280_temperature;BME280_humidity;BME280_pressure;Samples;Min_cycle;Max_cycle;Signal;HPM_P1;HPM_P2
2023/08/22 00:00:55;;;;;;;;;46.50;38.00;;;;;26.23;48.31;99569.53;5074108;28;8838;-77
2023/08/22 00:03:33;;;;;;;;;39.75;35.00;;;;;26.23;48.76;99566.81;5091795;28;8841;-79
2023/08/22 00:06:03;;;;;;;;;41.25;35.50;;;;;26.21;48.51;99568.81;5092028;28;8880;-76
2023/08/22 00:08:33;;;;;;;;;43.50;37.50;;;;;26.03;49.03;99564.03;5056618;28;8884;-79
2023/08/22 00:11:02;;;;;;;;;45.75;39.25;;;;;25.98;49.14;99568.94;5073127;28;8826;-80
2023/08/22 00:13:31;;;;;;;;;44.50;38.25;;;;;25.98;49.23;99565.41;5092121;28;9677;-78
2023/08/22 00:16:00;;;;;;;;;48.25;39.75;;;;;25.95;49.50;99569.22;5091518;28;8865;-78
2023/08/22 00:18:29;;;;;;;;;40.75;36.25;;;;;25.86;49.57;99568.13;5092082;28;8846;-80
2023/08/22 00:20:58;;;;;;;;;44.00;38.00;;;;;25.82;49.87;99569.38;5054287;28;8840;-78
2023/08/22 00:23:28;;;;;;;;;45.00;37.00;;;;;25.62;50.00;99565.66;5112171;28;8836;-78
2023/08/22 00:25:58;;;;;;;;;45.25;37.50;;;;;25.34;50.51;99569.81;5118416;28;8840;-79
2023/08/22 00:28:27;;;;;;;;;45.00;38.50;;;;;25.27;50.48;99568.56;5119317;28;8864;-78
2023/08/22 00:30:55;;;;;;;;;41.50;35.75;;;;;25.23;51.26;99570.66;5043394;28;8859;-78
2023/08/22 00:33:24;;;;;;;;;43.00;37.00;;;;;25.18;51.62;99564.78;5093586;28;8848;-79
2023/08/22 00:35:53;;;;;;;;;41.75;36.75;;;;;25.21;51.59;99564.56;5059146;28;8844;-79
2023/08/22 00:38:22;;;;;;;;;44.75;37.75;;;;;25.08;51.50;99567.38;5093387;28;8847;-76
2023/08/22 00:40:51;;;;;;;;;31.25;29.50;;;;;24.75;52.48;99560.22;5111816;28;8851;-79
2023/08/22 00:43:22;;;;;;;;;41.25;35.25;;;;;24.60;52.14;99556.88;5097003;28;8860;-77
2023/08/22 00:45:50;;;;;;;;;43.50;37.25;;;;;24.73;51.95;99556.78;5100968;28;8942;-78
2023/08/22 00:48:19;;;;;;;;;42.00;36.00;;;;;24.73;51.81;99549.56;5068588;28;8851;-80
2023/08/22 00:50:48;;;;;;;;;46.00;38.00;;;;;24.66;51.80;99563.59;5051739;28;8844;-77
2023/08/22 00:53:17;;;;;;;;;38.75;33.50;;;;;24.74;51.61;99554.00;5085348;28;8953;-79
2023/08/22 00:55:46;;;;;;;;;34.25;32.00;;;;;24.69;51.07;99553.47;5068771;28;8855;-78
2023/08/22 00:58:15;;;;;;;;;44.75;36.25;;;;;24.35;52.44;99555.28;5068734;28;8944;-80
2023/08/22 01:00:46;;;;;;;;;47.00;39.00;;;;;23.98;54.76;99563.50;5052296;28;8844;-78
2023/08/22 01:03:15;;;;;;;;;46.00;39.00;;;;;24.19;53.97;99552.97;5071732;28;9644;-79
2023/08/22 01:05:54;;;;;;;;;44.67;36.67;;;;;24.47;53.42;99554.34;5070134;28;8874;-80
2023/08/22 01:08:30;;;;;;;;;42.50;36.25;;;;;24.66;53.38;99553.72;5068980;28;8824;-78
2023/08/22 01:11:07;;;;;;;;;44.75;38.75;;;;;24.87;52.75;99550.31;5051395;28;8851;-79
2023/08/22 01:13:40;;;;;;;;;42.75;36.50;;;;;24.81;51.85;99540.91;5051146;28;8941;-77
2023/08/22 01:16:11;;;;;;;;;45.25;37.50;;;;;24.24;52.68;99548.06;5051194;28;8895;-77
2023/08/22 01:18:41;;;;;;;;;38.25;34.25;;;;;23.68;54.46;99551.44;5009041;28;8843;-79
2023/08/22 01:21:19;;;;;;;;;45.75;38.25;;;;;23.17;55.71;99551.66;5082199;28;8828;-77
2023/08/22 01:23:50;;;;;;;;;39.00;35.00;;;;;22.84;56.03;99545.06;5099430;28;8852;-76
2023/08/22 01:26:19;;;;;;;;;41.75;33.25;;;;;22.78;56.52;99543.69;5026911;28;8999;-79
2023/08/22 01:28:54;;;;;;;;;44.00;38.00;;;;;22.68;56.91;99549.84;5042842;28;8824;-79
2023/08/22 01:31:27;;;;;;;;;43.00;36.25;;;;;22.41;57.32;99551.69;5056854;28;8845;-79
2023/08/22 01:34:02;;;;;;;;;41.75;35.75;;;;;22.32;57.63;99538.09;5054795;28;8857;-79
2023/08/22 01:36:32;;;;;;;;;42.25;35.75;;;;;22.33;57.74;99540.63;5056314;28;8968;-77
2023/08/22 01:39:07;;;;;;;;;40.25;34.75;;;;;22.71;56.69;99536.19;5090244;28;8849;-79
2023/08/22 01:41:38;;;;;;;;;45.50;38.25;;;;;23.09;56.91;99540.63;5047176;28;8830;-79
2023/08/22 01:44:09;;;;;;;;;41.75;35.25;;;;;23.35;56.41;99538.69;5030886;28;8874;-78
2023/08/22 01:46:38;;;;;;;;;39.25;34.50;;;;;23.41;55.21;99537.38;5030630;28;8866;-77
2023/08/22 01:49:06;;;;;;;;;39.50;35.25;;;;;23.35;53.72;99541.38;5047257;28;8854;-78
2023/08/22 01:51:35;;;;;;;;;41.25;34.75;;;;;23.36;54.74;99535.06;5063799;28;8963;-77
2023/08/22 01:54:07;;;;;;;;;39.25;34.75;;;;;23.61;54.32;99542.16;5063643;28;8952;-77
2023/08/22 01:56:35;;;;;;;;;41.00;35.75;;;;;23.77;53.96;99537.34;5030654;28;8889;-78
2023/08/22 01:59:04;;;;;;;;;43.75;37.75;;;;;23.72;51.99;99536.81;5063442;28;8967;-78
2023/08/22 02:01:33;;;;;;;;;44.25;36.25;;;;;23.84;51.89;99540.38;5014207;28;8884;-80
2023/08/22 02:04:03;;;;;;;;;40.50;35.25;;;;;23.84;51.45;99539.53;5063562;28;8878;-79
2023/08/22 02:06:32;;;;;;;;;37.75;34.50;;;;;23.86;51.86;99538.44;5047099;28;8842;-80
2023/08/22 02:09:01;;;;;;;;;42.25;35.00;;;;;24.00;52.68;99544.56;5026524;28;8848;-79
2023/08/22 02:11:32;;;;;;;;;48.00;39.25;;;;;24.12;52.57;99538.25;5026489;28;8957;-78
2023/08/22 02:14:02;;;;;;;;;41.25;36.00;;;;;24.19;52.22;99534.16;5065227;28;8899;-81
2023/08/22 02:16:31;;;;;;;;;44.00;37.75;;;;;24.24;52.35;99537.31;5055248;28;8967;-77
2023/08/22 02:19:01;;;;;;;;;39.00;34.25;;;;;24.29;52.08;99534.28;5057836;28;8949;-78
2023/08/22 02:21:30;;;;;;;;;44.50;37.00;;;;;24.34;52.62;99534.78;5035571;28;8848;-79
2023/08/22 02:23:59;;;;;;;;;44.00;37.25;;;;;24.36;52.29;99532.84;5026440;28;8880;-78
2023/08/22 02:26:29;;;;;;;;;40.75;35.25;;;;;24.36;52.51;99527.47;4978892;28;8853;-78
2023/08/22 02:28:59;;;;;;;;;41.75;35.75;;;;;24.32;52.73;99529.53;5026483;28;8857;-77
2023/08/22 02:31:29;;;;;;;;;43.75;37.75;;;;;24.26;51.94;99526.47;5010585;28;8857;-79
2023/08/22 02:33:58;;;;;;;;;45.00;36.00;;;;;24.26;52.37;99535.41;5010322;28;8857;-80
2023/08/22 02:36:27;;;;;;;;;49.25;41.00;;;;;24.28;52.18;99532.56;4962284;28;8848;-78
2023/08/22 02:38:56;;;;;;;;;43.25;37.75;;;;;24.27;52.37;99528.19;5028786;28;8872;-78
2023/08/22 02:41:24;;;;;;;;;46.25;39.00;;;;;24.06;52.75;99522.63;5002995;28;8876;-77
2023/08/22 02:43:53;;;;;;;;;38.50;34.25;;;;;23.95;53.22;99531.50;5003839;28;8865;-79
2023/08/22 02:46:24;;;;;;;;;44.00;37.50;;;;;23.96;53.32;99527.84;5016453;28;8922;-77
2023/08/22 02:48:53;;;;;;;;;44.00;38.00;;;;;23.97;53.31;99526.88;5013094;28;8838;-80
2023/08/22 02:51:21;;;;;;;;;46.25;38.00;;;;;24.00;53.08;99525.78;5030802;28;8920;-78
2023/08/22 02:53:52;;;;;;;;;43.25;37.50;;;;;24.00;53.10;99521.28;5030276;28;8866;-80
2023/08/22 02:56:20;;;;;;;;;47.25;40.00;;;;;23.97;53.38;99519.66;5066252;28;8969;-79
2023/08/22 02:58:49;;;;;;;;;45.00;37.00;;;;;23.82;53.60;99536.13;5067430;28;8842;-78
2023/08/22 03:01:18;;;;;;;;;44.75;38.75;;;;;23.74;53.72;99531.34;5067894;28;8838;-79
2023/08/22 03:03:50;;;;;;;;;47.00;40.00;;;;;23.82;53.89;99539.66;5068630;28;8854;-78
2023/08/22 03:06:20;;;;;;;;;46.25;38.25;;;;;23.81;53.90;99539.75;5067581;28;8855;-79
2023/08/22 03:08:49;;;;;;;;;48.75;40.75;;;;;23.82;54.06;99536.13;5084319;28;8873;-79
2023/08/22 03:11:18;;;;;;;;;47.50;40.00;;;;;23.88;53.17;99541.00;5069605;28;8834;-78
2023/08/22 03:13:47;;;;;;;;;49.50;39.25;;;;;23.75;54.06;99541.97;5085805;28;8901;-77
2023/08/22 03:16:18;;;;;;;;;50.25;42.00;;;;;23.61;54.56;99550.19;5089269;28;8852;-79
2023/08/22 03:18:48;;;;;;;;;48.75;41.25;;;;;23.62;54.84;99540.31;5094097;28;8848;-79
2023/08/22 03:21:17;;;;;;;;;45.25;38.25;;;;;23.68;54.66;99537.19;5075936;28;8961;-77
2023/08/22 03:23:46;;;;;;;;;47.00;39.75;;;;;23.72;54.07;99535.97;5093069;28;8944;-77
2023/08/22 03:26:17;;;;;;;;;47.00;39.25;;;;;23.75;54.07;99547.34;5094736;28;8843;-80
2023/08/22 03:28:46;;;;;;;;;48.25;40.00;;;;;23.76;54.08;99551.72;5103360;28;8830;-80
2023/08/22 03:31:15;;;;;;;;;47.75;40.50;;;;;23.66;54.52;99553.41;5040816;28;8845;-79
2023/08/22 03:33:44;;;;;;;;;45.50;39.25;;;;;23.58;54.65;99547.72;5074388;28;9057;-78
2023/08/22 03:36:14;;;;;;;;;47.75;41.00;;;;;23.59;54.85;99554.81;5074288;28;8861;-79
2023/08/22 03:38:44;;;;;;;;;49.00;41.50;;;;;23.44;55.41;99550.59;5092706;28;8849;-78
2023/08/22 03:41:13;;;;;;;;;48.75;41.00;;;;;23.39;55.36;99548.22;5057551;28;8860;-78
2023/08/22 03:43:42;;;;;;;;;46.50;39.25;;;;;23.48;55.01;99552.91;5046351;28;8856;-80
2023/08/22 03:46:11;;;;;;;;;47.50;40.50;;;;;23.55;54.95;99550.66;5094564;28;8878;-78
2023/08/22 03:48:49;;;;;;;;;45.00;38.50;;;;;23.62;54.79;99553.72;5095071;28;8852;-80
2023/08/22 03:51:20;;;;;;;;;48.75;40.50;;;;;23.65;54.89;99549.00;5095405;28;8862;-80
2023/08/22 03:53:49;;;;;;;;;46.50;39.25;;;;;23.67;54.45;99552.41;5078663;28;8889;-79
2023/08/22 03:56:18;;;;;;;;;45.00;38.75;;;;;23.71;54.61;99553.03;5094246;28;8870;-82
2023/08/22 03:58:48;;;;;;;;;44.00;34.00;;;;;23.72;54.72;99547.56;5111352;28;8957;-80
2023/08/22 04:01:19;;;;;;;;;46.00;39.50;;;;;23.73;54.83;99548.41;5094236;28;8893;-78
2023/08/22 04:03:48;;;;;;;;;52.50;44.25;;;;;23.71;54.46;99547.66;5112254;28;8882;-80
2023/08/22 04:06:17;;;;;;;;;46.75;38.25;;;;;23.71;54.87;99545.84;5044275;28;8844;-76
2023/08/22 04:08:47;;;;;;;;;52.75;44.00;;;;;23.72;54.82;99547.56;5062204;28;8833;-78
2023/08/22 04:11:16;;;;;;;;;47.00;39.25;;;;;23.76;54.62;99551.72;5079380;28;8888;-79
2023/08/22 04:13:45;;;;;;;;;50.00;41.00;;;;;23.77;55.00;99558.81;5073772;28;8889;-79
2023/08/22 04:16:14;;;;;;;;;53.50;44.25;;;;;23.75;54.62;99555.38;5073878;28;8821;-77
2023/08/22 04:18:43;;;;;;;;;49.50;40.50;;;;;23.80;54.69;99559.53;5091860;28;8952;-79
2023/08/22 04:21:12;;;;;;;;;49.75;42.00;;;;;23.71;54.89;99561.94;5056048;28;8849;-79
2023/08/22 04:23:43;;;;;;;;;49.50;40.25;;;;;23.70;54.78;99565.59;5091555;28;8850;-79
2023/08/22 04:26:14;;;;;;;;;55.50;42.75;;;;;23.41;55.88;99565.06;5073647;28;8849;-77
2023/08/22 04:28:43;;;;;;;;;53.00;43.25;;;;;23.37;55.88;99564.47;5073900;28;8837;-78
2023/08/22 04:31:13;;;;;;;;;50.50;43.25;;;;;23.00;57.25;99575.19;5091692;28;8884;-78
2023/08/22 04:33:42;;;;;;;;;53.50;43.50;;;;;22.51;59.35;99580.50;5073146;28;9677;-78
2023/08/22 04:36:11;;;;;;;;;56.00;46.50;;;;;22.73;58.44;99575.34;5072195;28;8877;-78
2023/08/22 04:38:40;;;;;;;;;53.50;45.00;;;;;22.86;58.14;99577.13;5072869;28;8939;-80
2023/08/22 04:41:10;;;;;;;;;53.50;44.50;;;;;22.83;58.19;99571.97;5091094;28;8834;-78
2023/08/22 04:44:09;;;;;;;;;53.00;44.50;;;;;22.90;58.00;99579.53;4972622;28;8920;-79
2023/08/22 04:46:38;;;;;;;;;56.75;46.50;;;;;22.68;59.02;99576.63;4973106;28;8896;-80
2023/08/22 04:49:07;;;;;;;;;55.00;46.25;;;;;22.51;59.63;99578.69;4957178;28;8866;-78
2023/08/22 04:51:36;;;;;;;;;54.00;45.75;;;;;22.23;60.88;99585.91;4976215;28;8898;-80
2023/08/22 04:54:07;;;;;;;;;57.00;46.00;;;;;22.06;61.45;99588.06;4991853;28;8886;-78
2023/08/22 04:56:36;;;;;;;;;54.50;45.50;;;;;22.11;61.18;99591.25;4991497;28;8846;-79
2023/08/22 04:59:05;;;;;;;;;54.25;45.00;;;;;22.18;61.11;99596.09;4991915;28;8957;-79
2023/08/22 05:01:37;;;;;;;;;53.50;43.25;;;;;21.91;62.00;99598.84;4992011;28;8854;-80
2023/08/22 05:04:06;;;;;;;;;57.50;46.00;;;;;22.04;61.50;99597.03;4991587;28;9600;-80
2023/08/22 05:06:35;;;;;;;;;55.75;46.75;;;;;22.17;61.07;99596.22;4976214;28;8863;-79
2023/08/22 05:09:06;;;;;;;;;55.00;45.50;;;;;21.84;62.35;99598.41;5008511;28;8866;-78
2023/08/22 05:11:37;;;;;;;;;56.50;47.00;;;;;22.36;60.69;99594.00;4992072;28;8839;-79
2023/08/22 05:14:06;;;;;;;;;54.25;44.25;;;;;22.15;61.10;99596.31;4959131;28;8972;-79
2023/08/22 05:16:35;;;;;;;;;54.50;45.00;;;;;22.00;61.55;99602.72;4991757;28;8858;-80
2023/08/22 05:19:06;;;;;;;;;52.75;43.50;;;;;22.02;60.97;99606.13;4991322;28;9052;-79
2023/08/22 05:21:36;;;;;;;;;49.00;41.75;;;;;22.50;59.71;99606.41;5074951;28;8824;-78
2023/08/22 05:24:05;;;;;;;;;55.00;43.75;;;;;22.88;58.31;99605.53;5092676;28;8843;-79
2023/08/22 05:26:34;;;;;;;;;47.75;40.25;;;;;23.03;57.04;99598.25;5068806;28;9686;-79
2023/08/22 05:29:04;;;;;;;;;50.75;42.50;;;;;22.93;57.42;99605.25;5090213;28;8859;-81
2023/08/22 05:31:34;;;;;;;;;52.00;43.75;;;;;23.17;57.46;99602.63;5105688;28;8923;-80
2023/08/22 05:34:03;;;;;;;;;51.75;43.50;;;;;23.48;56.38;99603.88;5071811;28;8842;-77
2023/08/22 05:36:34;;;;;;;;;49.50;41.00;;;;;23.61;55.63;99608.38;5072083;28;8838;-79
2023/08/22 05:39:04;;;;;;;;;55.75;45.00;;;;;23.36;56.20;99605.66;5072429;28;8838;-79
2023/08/22 05:41:33;;;;;;;;;51.50;43.25;;;;;23.58;55.65;99614.81;5039323;28;9632;-78
2023/08/22 05:44:02;;;;;;;;;51.00;42.50;;;;;23.68;55.06;99613.19;5105171;28;8866;-77
2023/08/22 05:46:31;;;;;;;;;49.00;40.50;;;;;24.01;54.60;99611.59;5089602;28;8891;-79
2023/08/22 05:49:01;;;;;;;;;50.50;41.75;;;;;24.33;54.12;99608.28;5071184;28;8960;-78
2023/08/22 05:51:30;;;;;;;;;49.75;41.50;;;;;24.48;52.47;99616.97;5071379;28;8872;-78
2023/08/22 05:54:01;;;;;;;;;40.25;35.75;;;;;24.63;52.45;99621.16;5090243;28;8888;-78
2023/08/22 05:56:30;;;;;;;;;50.00;41.75;;;;;24.88;51.53;99616.53;5088771;28;8846;-77
2023/08/22 05:58:59;;;;;;;;;52.25;43.00;;;;;24.92;51.41;99618.00;5076005;28;8849;-79
2023/08/22 06:01:28;;;;;;;;;53.50;44.25;;;;;24.57;51.97;99623.47;5094237;28;9560;-78
2023/08/22 06:03:57;;;;;;;;;45.25;39.00;;;;;24.85;51.42;99620.34;5055193;28;8838;-79
2023/08/22 06:06:28;;;;;;;;;48.50;40.25;;;;;25.16;50.63;99617.88;5088181;28;8915;-79
2023/08/22 06:08:57;;;;;;;;;55.00;44.00;;;;;25.12;50.02;99619.09;5087759;28;8828;-80
2023/08/22 06:11:28;;;;;;;;;48.75;41.00;;;;;25.31;50.22;99613.06;5040756;28;8993;-79
2023/08/22 06:14:00;;;;;;;;;48.50;40.50;;;;;25.55;49.28;99614.75;4992615;28;8871;-78
2023/08/22 06:16:29;;;;;;;;;48.00;41.00;;;;;25.73;48.71;99610.53;5091025;28;8862;-77
2023/08/22 06:18:58;;;;;;;;;50.50;42.50;;;;;25.24;50.04;99614.56;5057365;28;9704;-83
2023/08/22 06:21:28;;;;;;;;;49.50;41.75;;;;;24.68;51.20;99621.66;5040981;28;8832;-77
2023/08/22 06:23:57;;;;;;;;;50.75;42.25;;;;;24.03;52.56;99625.75;5075185;28;8870;-79
2023/08/22 06:26:27;;;;;;;;;49.25;42.25;;;;;23.90;52.67;99623.16;5071151;28;8903;-79
2023/08/22 06:28:56;;;;;;;;;48.00;40.50;;;;;24.39;52.49;99609.63;5071331;28;8918;-77
2023/08/22 06:31:27;;;;;;;;;51.25;41.75;;;;;24.14;51.33;99620.44;5071199;28;8830;-78
2023/08/22 06:33:56;;;;;;;;;63.67;51.67;;;;;23.49;55.09;99619.03;5071721;28;8866;-78
2023/08/22 06:36:25;;;;;;;;;50.50;41.75;;;;;23.85;54.29;99619.97;5071947;28;9321;-78
2023/08/22 06:38:54;;;;;;;;;49.75;42.50;;;;;24.32;52.85;99615.50;5026919;28;8963;-77
2023/08/22 06:41:25;;;;;;;;;45.00;39.00;;;;;24.76;51.56;99609.47;5009884;28;8979;-78
2023/08/22 06:43:56;;;;;;;;;50.25;41.25;;;;;25.02;50.77;99602.84;5009802;28;9812;-79
2023/08/22 06:46:31;;;;;;;;;49.50;41.25;;;;;25.26;50.16;99608.06;5010290;28;8980;-80
2023/08/22 06:49:00;;;;;;;;;49.75;40.00;;;;;25.33;49.81;99603.06;4977416;28;8893;-78
2023/08/22 06:51:30;;;;;;;;;52.00;43.00;;;;;25.61;49.20;99611.56;5009955;28;8868;-78
2023/08/22 06:53:59;;;;;;;;;51.00;42.50;;;;;25.40;49.31;99603.44;5029083;28;8935;-75
2023/08/22 06:56:28;;;;;;;;;50.25;42.00;;;;;24.83;51.43;99614.25;5030669;28;8829;-76
2023/08/22 06:58:58;;;;;;;;;50.00;41.75;;;;;24.73;51.91;99618.63;5092835;28;9680;-77
2023/08/22 07:01:27;;;;;;;;;50.25;43.00;;;;;24.92;51.15;99618.88;5092895;28;8883;-79
2023/08/22 07:03:56;;;;;;;;;49.50;41.50;;;;;25.29;50.68;99618.56;5093034;28;8934;-78
2023/08/22 07:06:44;;;;;;;;;47.75;40.25;;;;;25.77;49.14;99614.66;5092227;28;8899;-79
2023/08/22 07:09:13;;;;;;;;;50.50;42.00;;;;;26.03;48.64;99617.88;5024419;28;8936;-78
2023/08/22 07:11:43;;;;;;;;;46.00;39.00;;;;;26.35;47.68;99621.53;5092752;28;8830;-79
2023/08/22 07:14:13;;;;;;;;;49.50;41.50;;;;;26.71;46.82;99625.59;5073384;28;9728;-78
2023/08/22 07:16:42;;;;;;;;;49.00;40.00;;;;;26.78;46.43;99628.59;5092520;28;8919;-79
2023/08/22 07:19:11;;;;;;;;;42.50;36.75;;;;;26.23;47.10;99628.78;5112953;28;8840;-79
2023/08/22 07:21:40;;;;;;;;;49.50;41.50;;;;;25.46;49.69;99630.69;5094967;28;8832;-78
2023/08/22 07:24:08;;;;;;;;;47.75;41.00;;;;;25.22;50.37;99624.59;5112797;28;8862;-79
2023/08/22 07:26:37;;;;;;;;;46.75;39.50;;;;;25.59;49.03;99627.84;5112410;28;8831;-78
2023/08/22 07:29:06;;;;;;;;;50.50;40.00;;;;;25.48;49.70;99625.19;5112569;28;8867;-77
2023/08/22 07:31:36;;;;;;;;;64.75;51.25;;;;;26.13;48.50;99627.88;5112454;28;8951;-76
2023/08/22 07:34:05;;;;;;;;;48.50;41.50;;;;;26.03;47.84;99627.81;5094175;28;8960;-79
2023/08/22 07:36:34;;;;;;;;;48.50;40.25;;;;;25.49;49.35;99624.19;5113286;28;8851;-77
2023/08/22 07:39:04;;;;;;;;;45.75;39.00;;;;;25.82;49.02;99617.84;5094663;28;8843;-79
2023/08/22 07:41:33;;;;;;;;;49.50;41.50;;;;;26.07;48.34;99629.25;5112689;28;8816;-76
2023/08/22 07:44:01;;;;;;;;;49.00;41.00;;;;;26.50;47.38;99633.69;5112214;28;9646;-79
2023/08/22 07:46:30;;;;;;;;;52.50;43.50;;;;;26.93;46.78;99631.75;5060348;28;9014;-78
2023/08/22 07:49:00;;;;;;;;;48.50;40.75;;;;;27.22;45.57;99626.50;5099329;28;8877;-77
2023/08/22 07:51:30;;;;;;;;;48.25;40.25;;;;;27.47;44.86;99635.94;5097770;28;8841;-76
2023/08/22 07:53:59;;;;;;;;;50.50;40.50;;;;;27.22;45.28;99642.72;5077065;28;10060;-79
2023/08/22 07:56:28;;;;;;;;;54.00;44.00;;;;;26.47;47.32;99645.63;5039591;28;9590;-78
2023/08/22 07:58:58;;;;;;;;;47.75;39.75;;;;;26.62;46.96;99631.78;5043031;28;8876;-78
2023/08/22 08:01:27;;;;;;;;;49.25;41.25;;;;;26.41;47.29;99646.09;5096955;28;8838;-77
2023/08/22 08:03:56;;;;;;;;;50.75;42.25;;;;;26.54;47.08;99634.28;5091470;28;8861;-77
2023/08/22 08:06:27;;;;;;;;;47.75;39.75;;;;;27.02;46.04;99633.69;5091125;28;8858;-77
2023/08/22 08:08:55;;;;;;;;;46.50;38.75;;;;;27.39;45.63;99635.78;5090984;28;8857;-76
2023/08/22 08:11:24;;;;;;;;;49.00;40.00;;;;;27.74;44.56;99640.72;5091220;28;8830;-79
2023/08/22 08:13:53;;;;;;;;;47.50;38.25;;;;;28.04;43.54;99628.03;5073142;28;8853;-79
2023/08/22 08:16:22;;;;;;;;;48.00;40.00;;;;;28.20;43.29;99636.44;5090820;28;8830;-76
2023/08/22 08:19:07;;;;;;;;;48.00;40.25;;;;;28.54;42.56;99640.53;5061117;28;8877;-79
2023/08/22 08:21:37;;;;;;;;;45.50;39.00;;;;;28.79;42.27;99641.75;5073019;28;8822;-78
2023/08/22 08:24:06;;;;;;;;;44.25;38.00;;;;;28.87;41.71;99647.25;5090470;28;8873;-78
2023/08/22 08:26:38;;;;;;;;;44.50;38.50;;;;;29.13;41.69;99641.19;5090586;28;8830;-77
2023/08/22 08:29:07;;;;;;;;;45.75;38.75;;;;;29.33;41.30;99642.81;5090531;28;8848;-79
2023/08/22 08:31:36;;;;;;;;;49.50;41.25;;;;;29.11;40.85;99645.91;5090882;28;8845;-77
2023/08/22 08:34:05;;;;;;;;;47.50;40.00;;;;;28.62;42.52;99648.75;5090575;28;8946;-77
2023/08/22 08:36:34;;;;;;;;;47.50;40.00;;;;;28.26;43.07;99642.28;5039998;28;8865;-81
2023/08/22 08:39:05;;;;;;;;;50.00;42.25;;;;;28.07;43.93;99640.44;5091326;28;10062;-77
2023/08/22 08:41:35;;;;;;;;;48.75;41.00;;;;;27.81;44.13;99649.94;5091169;28;9022;-79
2023/08/22 08:44:04;;;;;;;;;47.25;38.75;;;;;28.12;43.67;99649.84;5091487;28;9567;-78
2023/08/22 08:46:33;;;;;;;;;39.25;34.00;;;;;28.10;43.51;99646.41;5045182;28;8962;-78
2023/08/22 08:49:05;;;;;;;;;50.50;42.50;;;;;27.89;43.94;99645.69;5096211;28;8838;-77
2023/08/22 08:51:35;;;;;;;;;46.75;38.50;;;;;27.90;43.87;99642.84;5091242;28;9410;-80
2023/08/22 08:54:07;;;;;;;;;47.75;39.00;;;;;28.52;42.86;99646.06;5090855;28;8838;-79
2023/08/22 08:56:40;;;;;;;;;45.00;37.50;;;;;28.79;42.62;99642.59;5055602;28;8862;-77
2023/08/22 08:59:09;;;;;;;;;44.75;38.50;;;;;28.40;42.78;99648.09;5090228;28;9067;-76
2023/08/22 09:01:42;;;;;;;;;47.25;39.50;;;;;28.34;42.90;99653.22;5090272;28;8871;-78
2023/08/22 09:04:11;;;;;;;;;45.25;39.00;;;;;28.59;41.88;99646.31;5090300;28;8842;-77
2023/08/22 09:06:40;;;;;;;;;46.75;39.00;;;;;28.84;41.76;99652.13;5089969;28;8842;-80
2023/08/22 09:09:12;;;;;;;;;47.25;39.50;;;;;29.09;40.96;99651.44;5089931;28;8985;-77
2023/08/22 09:11:42;;;;;;;;;46.50;40.00;;;;;29.39;40.83;99646.78;5089461;28;8951;-78
2023/08/22 09:14:19;;;;;;;;;46.00;38.00;;;;;29.68;40.81;99638.47;5090184;28;9659;-80
2023/08/22 09:16:48;;;;;;;;;44.00;38.00;;;;;29.87;40.16;99642.03;5090221;28;8830;-77
2023/08/22 09:19:17;;;;;;;;;42.25;35.00;;;;;29.99;39.50;99638.06;5088647;28;8868;-78
2023/08/22 09:21:59;;;;;;;;;43.75;38.00;;;;;29.95;39.47;99642.97;5088686;28;9688;-78
2023/08/22 09:24:29;;;;;;;;;45.50;38.25;;;;;29.90;39.69;99636.31;5091141;28;8953;-78
2023/08/22 09:26:58;;;;;;;;;46.75;40.25;;;;;30.10;38.44;99637.81;5090343;28;8838;-80
2023/08/22 09:29:28;;;;;;;;;48.25;38.50;;;;;30.25;38.04;99635.44;5089786;28;9050;-77
2023/08/22 09:31:58;;;;;;;;;45.00;38.75;;;;;30.43;38.02;99632.69;5089599;28;8955;-79
2023/08/22 09:34:27;;;;;;;;;47.00;40.00;;;;;30.40;37.48;99630.28;5089460;28;8869;-78
2023/08/22 09:36:56;;;;;;;;;45.75;38.25;;;;;30.13;38.04;99631.25;5089199;28;8834;-78
2023/08/22 09:39:25;;;;;;;;;46.50;38.75;;;;;30.43;37.96;99626.44;5089837;28;8858;-78
2023/08/22 09:41:58;;;;;;;;;44.50;37.25;;;;;30.64;37.67;99626.03;5094553;28;8874;-77
2023/08/22 09:44:28;;;;;;;;;44.67;39.00;;;;;30.75;37.80;99625.81;5092011;28;8869;-78
2023/08/22 09:46:58;;;;;;;;;46.00;39.50;;;;;30.89;37.14;99621.63;5089963;28;8858;-78
2023/08/22 09:49:30;;;;;;;;;47.75;40.00;;;;;31.05;37.19;99618.09;5071646;28;8870;-78
2023/08/22 09:52:01;;;;;;;;;45.75;38.75;;;;;31.09;36.94;99617.63;5089542;28;8846;-79
2023/08/22 09:54:30;;;;;;;;;46.00;38.75;;;;;31.23;37.02;99624.31;5089450;28;8845;-78
2023/08/22 09:57:03;;;;;;;;;47.50;40.50;;;;;31.24;37.17;99617.91;5089080;28;9626;-77
2023/08/22 09:59:33;;;;;;;;;44.75;38.50;;;;;31.40;36.27;99616.22;5089446;28;8863;-79
2023/08/22 10:02:05;;;;;;;;;50.00;41.25;;;;;31.38;35.52;99613.69;5087905;28;8833;-77
2023/08/22 10:04:35;;;;;;;;;48.75;41.25;;;;;31.37;35.98;99612.00;5089735;28;8865;-79
2023/08/22 10:07:04;;;;;;;;;48.50;39.75;;;;;31.19;36.56;99611.25;5089860;28;8857;-79
2023/08/22 10:09:33;;;;;;;;;46.00;39.00;;;;;31.03;36.60;99610.16;5055054;28;9019;-78
2023/08/22 10:12:08;;;;;;;;;53.00;44.00;;;;;30.94;36.93;99602.13;5089455;28;8953;-76
2023/08/22 10:14:42;;;;;;;;;50.00;42.25;;;;;30.90;36.52;99598.91;5055169;28;8886;-80
2023/08/22 10:17:13;;;;;;;;;47.50;40.50;;;;;31.18;36.50;99598.69;5089276;28;8830;-77
2023/08/22 10:19:43;;;;;;;;;46.75;40.00;;;;;31.35;36.19;99591.44;5089316;28;8905;-80
2023/08/22 10:22:14;;;;;;;;;48.00;40.75;;;;;31.49;36.49;99591.63;5054647;28;8903;-78
2023/08/22 10:24:47;;;;;;;;;43.00;37.00;;;;;31.58;36.87;99591.63;5089709;28;8868;-77
2023/08/22 10:27:19;;;;;;;;;48.75;41.50;;;;;31.78;36.75;99601.19;5089172;28;8846;-79
2023/08/22 10:30:18;;;;;;;;;49.25;41.75;;;;;31.97;36.26;99591.00;5053707;28;8849;-78
2023/08/22 10:33:05;;;;;;;;;50.75;42.75;;;;;32.06;35.39;99592.72;5088310;28;8967;-77
2023/08/22 10:36:03;;;;;;;;;50.25;42.00;;;;;32.17;34.52;99597.00;5089804;28;8842;-77
2023/08/22 10:38:52;;;;;;;;;50.00;42.00;;;;;32.20;34.25;99596.63;5093808;28;8864;-77
2023/08/22 10:41:23;;;;;;;;;47.75;40.75;;;;;32.13;35.35;99582.84;5092627;28;9048;-78
2023/08/22 10:43:57;;;;;;;;;47.00;40.00;;;;;32.21;36.39;99585.59;5089228;28;8826;-78
2023/08/22 10:46:59;;;;;;;;;51.00;42.00;;;;;32.53;36.26;99583.81;5088728;28;8834;-77
2023/08/22 10:49:50;;;;;;;;;52.75;42.75;;;;;32.42;35.66;99576.03;4986921;28;8963;-77
2023/08/22 10:52:25;;;;;;;;;50.25;42.25;;;;;32.51;35.69;99576.88;4986646;28;8899;-79
2023/08/22 10:55:05;;;;;;;;;51.25;42.50;;;;;32.69;35.67;99573.94;4973365;28;8861;-77
2023/08/22 10:57:36;;;;;;;;;50.50;42.75;;;;;32.64;35.35;99575.31;5006769;28;8912;-78
2023/08/22 11:00:21;;;;;;;;;45.50;39.25;;;;;32.85;35.24;99573.88;5006457;28;8947;-78
2023/08/22 11:02:51;;;;;;;;;44.75;37.75;;;;;32.90;33.76;99576.06;5006877;28;8859;-77
2023/08/22 11:05:21;;;;;;;;;43.50;36.50;;;;;33.01;33.19;99575.66;5006603;28;9806;-79
2023/08/22 11:07:51;;;;;;;;;42.25;36.75;;;;;33.10;33.14;99573.78;5006460;28;8898;-79
2023/08/22 11:10:22;;;;;;;;;39.25;34.00;;;;;33.15;31.11;99583.13;5006276;28;9071;-79
2023/08/22 11:12:54;;;;;;;;;38.00;33.50;;;;;33.25;31.65;99571.16;5005897;28;8938;-77
2023/08/22 11:15:25;;;;;;;;;42.75;36.25;;;;;33.50;30.63;99571.81;5005899;28;8843;-78
2023/08/22 11:17:53;;;;;;;;;37.00;33.00;;;;;33.58;30.65;99572.66;5005938;28;8871;-78
2023/08/22 11:20:23;;;;;;;;;45.75;38.75;;;;;33.84;32.05;99567.84;5010612;28;8849;-79
2023/08/22 11:22:54;;;;;;;;;51.50;41.75;;;;;33.96;32.45;99569.97;4992059;28;9001;-80
2023/08/22 11:25:24;;;;;;;;;49.00;41.75;;;;;34.04;32.84;99566.34;5045495;28;8846;-77
2023/08/22 11:27:53;;;;;;;;;45.25;39.25;;;;;34.26;31.93;99563.72;5108515;28;8951;-77
2023/08/22 11:30:23;;;;;;;;;44.00;37.00;;;;;34.51;30.17;99557.00;5094966;28;8850;-79
2023/08/22 11:32:53;;;;;;;;;40.50;35.00;;;;;34.73;30.02;99557.06;5091327;28;9001;-79
2023/08/22 11:35:23;;;;;;;;;41.50;35.75;;;;;34.91;29.04;99554.81;5039715;28;8868;-78
2023/08/22 11:37:51;;;;;;;;;36.50;32.25;;;;;35.07;28.72;99555.63;5071931;28;8885;-78
2023/08/22 11:40:20;;;;;;;;;41.00;35.25;;;;;35.10;28.13;99556.09;5088424;28;8902;-76